CheckWX is a tool to help pilots better visualize weather data.  It is not intended as a substitute for an official pre-flight weather briefing.

21:35:28 UTC

KGSP METAR
Greenville Spartanburg International Airport
Greer, South Carolina, USA
Current

42 mins ago

KGSP 232053Z 04007KT 3SM BR OVC006 06/05 A3018 RMK AO2 RAE47 SLP221 P0000 60003 T00610050 56017
Observed
Feb-23 @ 20:53 UTC
Wind
  • 040° at 7 KTS
Visibility
3 SM
Flight Rules
IFR
Conditions
Mist
Cloud Levels
  • Overcast at 600' AGL
Temperature
C / 43°F
Dewpoint
C / 41°F
Humidity
93%
Altimeter
30.18" Hg
Pressure
1022.1 hPa
Current Rain
0.01"
Previous

1 hour ago

KGSP 232022Z 06008KT 3SM -RA BR OVC006 06/04 A3019 RMK AO2 P0000 T00610044
Observed
Feb-23 @ 20:22 UTC
Wind
  • 060° at 8 KTS
Visibility
3 SM
Flight Rules
IFR
Conditions
Light Rain, Mist
Cloud Levels
  • Overcast at 600' AGL
Temperature
C / 43°F
Dewpoint
C / 39°F
Humidity
87%
Altimeter
30.19" Hg
Pressure
1022.32 hPa
Current Rain
0.01"
Previous

2 hours ago

KGSP 231953Z 04010KT 2SM -RA BR OVC008 06/04 A3019 RMK AO2 RAB04 SLP224 P0003 T00610044
Observed
Feb-23 @ 19:53 UTC
Wind
  • 040° at 10 KTS
Visibility
2 SM
Flight Rules
IFR
Conditions
Light Rain, Mist
Cloud Levels
  • Overcast at 800' AGL
Temperature
C / 43°F
Dewpoint
C / 39°F
Humidity
87%
Altimeter
30.19" Hg
Pressure
1022.4 hPa
Current Rain
0.03"